createdAt,value
2022-11-02T00:01:13.859Z,0.60
2022-11-02T00:03:31.560Z,0.00
2022-11-02T00:06:01.577Z,0.00
2022-11-02T00:08:31.830Z,0.00
2022-11-02T00:11:01.813Z,0.00
2022-11-02T00:16:04.053Z,0.30
2022-11-02T00:18:32.799Z,0.30
2022-11-02T00:21:03.654Z,0.30
2022-11-02T00:23:32.225Z,0.00
2022-11-02T00:26:02.775Z,0.00
2022-11-02T00:28:31.688Z,0.00
2022-11-02T00:31:01.649Z,0.00
2022-11-02T00:33:31.682Z,0.00
2022-11-02T00:36:02.112Z,0.00
2022-11-02T00:38:31.580Z,0.00
2022-11-02T00:41:01.610Z,0.00
2022-11-02T00:43:31.972Z,0.00
2022-11-02T00:46:01.695Z,0.00
2022-11-02T00:48:31.600Z,0.00
2022-11-02T00:51:01.603Z,0.00
2022-11-02T00:53:31.614Z,0.00
2022-11-02T00:56:01.871Z,0.00
2022-11-02T00:58:31.983Z,0.00
2022-11-02T01:01:05.357Z,0.00
2022-11-02T01:03:31.578Z,0.10
2022-11-02T01:06:07.078Z,0.10
2022-11-02T01:08:32.322Z,0.10
2022-11-02T01:11:08.281Z,0.10
2022-11-02T01:13:31.747Z,0.00
2022-11-02T01:16:03.000Z,0.00
2022-11-02T01:18:31.756Z,0.00
2022-11-02T01:21:01.889Z,0.00
2022-11-02T01:23:32.434Z,0.00
2022-11-02T01:26:02.521Z,0.00
2022-11-02T01:28:31.809Z,0.00
2022-11-02T01:31:01.712Z,0.00
2022-11-02T01:33:32.921Z,0.00
2022-11-02T01:36:03.140Z,0.00
2022-11-02T01:38:32.787Z,0.00
2022-11-02T01:41:01.772Z,0.00
2022-11-02T01:43:33.334Z,0.00
2022-11-02T01:46:06.946Z,0.00
2022-11-02T01:48:35.649Z,0.00
2022-11-02T01:51:05.659Z,0.00
2022-11-02T01:53:34.458Z,0.00
2022-11-02T01:56:02.596Z,0.00
2022-11-02T01:58:34.038Z,0.00
2022-11-02T02:01:01.805Z,0.00
2022-11-02T02:03:32.713Z,0.00
2022-11-02T02:06:06.603Z,0.00
2022-11-02T02:08:33.436Z,0.00
2022-11-02T02:11:01.664Z,0.00
2022-11-02T02:13:32.587Z,0.00
2022-11-02T02:18:39.080Z,0.00
2022-11-02T02:21:12.276Z,0.00
2022-11-02T02:23:48.126Z,0.00
2022-11-02T02:26:21.422Z,0.00
2022-11-02T02:28:40.538Z,0.00
2022-11-02T02:31:11.936Z,0.00
2022-11-02T02:33:35.077Z,0.00
2022-11-02T02:36:09.701Z,0.00
2022-11-02T02:38:40.486Z,0.00
2022-11-02T02:41:10.796Z,0.00
2022-11-02T02:43:36.300Z,0.00
2022-11-02T02:46:07.514Z,0.00
2022-11-02T02:48:35.048Z,0.00
2022-11-02T02:51:08.701Z,0.00
2022-11-02T02:53:36.476Z,0.00
2022-11-02T02:56:04.137Z,0.00
2022-11-02T02:58:38.026Z,0.00
2022-11-02T03:01:05.265Z,0.00
2022-11-02T03:03:33.667Z,0.00
2022-11-02T03:06:13.104Z,0.00
2022-11-02T03:08:37.622Z,0.00
2022-11-02T03:11:09.390Z,0.00
2022-11-02T03:16:09.831Z,0.00
2022-11-02T03:18:38.492Z,0.00
2022-11-02T03:21:14.354Z,0.00
2022-11-02T03:23:37.381Z,0.00
2022-11-02T03:26:06.859Z,0.00
2022-11-02T03:31:09.317Z,0.00
2022-11-02T03:33:36.870Z,0.00
2022-11-02T03:36:06.918Z,0.00
2022-11-02T03:38:35.656Z,0.00
2022-11-02T03:41:04.018Z,0.00
2022-11-02T03:43:35.226Z,0.00
2022-11-02T03:46:03.883Z,0.00
2022-11-02T03:48:35.242Z,0.00
2022-11-02T03:51:06.148Z,0.00
2022-11-02T03:53:41.288Z,0.00
2022-11-02T03:56:07.498Z,0.00
2022-11-02T03:58:31.972Z,0.00
2022-11-02T04:01:04.072Z,0.00
2022-11-02T04:03:33.346Z,0.00
2022-11-02T04:06:01.995Z,0.00
2022-11-02T04:08:35.596Z,0.00
2022-11-02T04:13:41.869Z,0.00
2022-11-02T04:16:01.677Z,0.00
2022-11-02T04:21:01.904Z,0.00
2022-11-02T04:23:41.474Z,0.00
2022-11-02T04:26:02.240Z,0.00
2022-11-02T04:28:31.659Z,0.00
2022-11-02T04:31:01.723Z,0.00
2022-11-02T04:33:31.886Z,0.00
2022-11-02T04:36:04.526Z,0.00
2022-11-02T04:38:39.829Z,0.00
2022-11-02T04:41:11.462Z,0.00
2022-11-02T04:43:31.740Z,0.00
2022-11-02T04:46:01.928Z,0.00
2022-11-02T04:51:01.778Z,0.00
2022-11-02T04:53:31.709Z,0.00
2022-11-02T04:56:01.999Z,0.00
2022-11-02T04:58:31.864Z,0.00
2022-11-02T05:01:05.521Z,0.00
2022-11-02T05:03:32.412Z,0.00
2022-11-02T05:06:02.119Z,0.00
2022-11-02T05:08:32.125Z,0.00
2022-11-02T05:11:01.844Z,0.00
2022-11-02T05:13:32.226Z,0.00
2022-11-02T05:16:01.784Z,0.00
2022-11-02T05:18:32.129Z,0.00
2022-11-02T05:21:01.933Z,0.00
2022-11-02T05:23:31.832Z,0.00
2022-11-02T05:26:03.812Z,0.00
2022-11-02T05:31:02.114Z,0.00
2022-11-02T05:33:32.400Z,0.00
2022-11-02T05:36:01.854Z,0.00
2022-11-02T05:41:01.892Z,0.00
2022-11-02T05:43:31.875Z,0.00
2022-11-02T05:46:02.981Z,0.00
2022-11-02T05:48:32.712Z,0.00
2022-11-02T05:51:03.447Z,0.00
2022-11-02T05:53:33.151Z,0.00
2022-11-02T05:56:03.763Z,0.00
2022-11-02T05:58:33.406Z,0.00
2022-11-02T06:01:04.204Z,0.00
2022-11-02T06:03:32.020Z,0.00
2022-11-02T06:06:05.177Z,0.00
2022-11-02T06:08:32.718Z,0.00
2022-11-02T06:11:04.170Z,0.00
2022-11-02T06:13:32.344Z,0.00
2022-11-02T06:16:04.453Z,0.00
2022-11-02T06:18:31.782Z,0.00
2022-11-02T06:21:02.289Z,0.00
2022-11-02T06:23:31.718Z,0.00
2022-11-02T06:26:02.907Z,0.00
2022-11-02T06:28:31.861Z,0.00
2022-11-02T06:31:01.711Z,0.00
2022-11-02T06:33:31.854Z,0.00
2022-11-02T06:36:02.458Z,0.00
2022-11-02T06:38:31.972Z,0.00
2022-11-02T06:41:05.454Z,0.00
2022-11-02T06:43:32.540Z,0.10
2022-11-02T06:46:01.827Z,0.10
2022-11-02T06:48:35.166Z,0.10
2022-11-02T06:51:03.194Z,0.10
2022-11-02T06:53:32.483Z,0.00
2022-11-02T06:56:01.747Z,0.00
2022-11-02T06:58:31.790Z,0.00
2022-11-02T07:01:06.260Z,0.00
2022-11-02T07:03:32.611Z,0.00
2022-11-02T07:06:02.383Z,0.00
2022-11-02T07:08:31.754Z,0.00
2022-11-02T07:11:01.850Z,0.00
2022-11-02T07:13:31.877Z,0.00
2022-11-02T07:16:02.037Z,0.00
2022-11-02T07:18:31.726Z,0.00
2022-11-02T07:21:02.242Z,0.00
2022-11-02T07:23:32.181Z,0.00
2022-11-02T07:26:02.236Z,0.00
2022-11-02T07:28:31.900Z,0.00
2022-11-02T07:31:01.710Z,0.00
2022-11-02T07:33:31.711Z,0.00
2022-11-02T07:36:03.640Z,0.00
2022-11-02T07:38:31.736Z,0.00
2022-11-02T07:41:01.892Z,0.00
2022-11-02T07:43:31.895Z,0.10
2022-11-02T07:46:02.042Z,0.10
2022-11-02T07:48:32.178Z,0.10
2022-11-02T07:51:02.019Z,0.10
2022-11-02T07:53:31.877Z,0.00
2022-11-02T07:56:02.219Z,0.00
2022-11-02T07:58:32.017Z,0.00
2022-11-02T08:03:32.055Z,0.30
2022-11-02T08:06:02.165Z,0.30
2022-11-02T08:08:31.779Z,0.30
2022-11-02T08:11:04.747Z,0.30
2022-11-02T08:13:33.056Z,0.00
2022-11-02T08:16:01.902Z,0.00
2022-11-02T08:23:32.080Z,0.00
2022-11-02T08:26:01.881Z,0.00
2022-11-02T08:28:34.701Z,0.00
2022-11-02T08:31:01.962Z,0.00
2022-11-02T08:33:32.041Z,0.00
2022-11-02T08:36:03.936Z,0.00
2022-11-02T08:38:31.853Z,0.00
2022-11-02T08:41:02.148Z,0.00
2022-11-02T08:43:31.933Z,0.00
2022-11-02T08:46:14.960Z,0.00
2022-11-02T08:48:32.400Z,0.00
2022-11-02T08:51:01.981Z,0.00
2022-11-02T08:53:31.789Z,0.00
2022-11-02T08:56:02.227Z,0.00
2022-11-02T08:58:31.841Z,0.00
2022-11-02T09:01:02.144Z,0.00
2022-11-02T09:03:31.967Z,0.80
2022-11-02T09:06:01.838Z,0.80
2022-11-02T09:08:32.363Z,0.80
2022-11-02T09:11:03.026Z,0.80
2022-11-02T09:13:31.936Z,0.00
2022-11-02T09:16:02.118Z,0.00
2022-11-02T09:18:31.767Z,0.00
2022-11-02T09:21:02.932Z,0.00
2022-11-02T09:23:32.576Z,0.00
2022-11-02T09:26:01.862Z,0.00
2022-11-02T09:28:32.006Z,0.00
2022-11-02T09:31:04.911Z,0.00
2022-11-02T09:33:33.299Z,0.00
2022-11-02T09:36:03.243Z,0.00
2022-11-02T09:38:32.685Z,0.00
2022-11-02T09:41:12.024Z,0.00
2022-11-02T09:43:40.915Z,0.40
2022-11-02T09:46:05.992Z,0.40
2022-11-02T09:51:06.995Z,0.40
2022-11-02T09:53:39.821Z,0.50
2022-11-02T09:56:04.659Z,0.50
2022-11-02T09:58:36.995Z,0.50
2022-11-02T10:01:08.931Z,0.50
2022-11-02T10:03:42.496Z,0.20
2022-11-02T10:06:07.345Z,0.20
2022-11-02T10:11:18.712Z,0.20
2022-11-02T10:13:40.187Z,0.00
2022-11-02T10:16:09.325Z,0.00
2022-11-02T10:18:35.298Z,0.00
2022-11-02T10:21:09.802Z,0.00
2022-11-02T10:23:35.961Z,0.00
2022-11-02T10:26:02.024Z,0.00
2022-11-02T10:28:35.620Z,0.00
2022-11-02T10:31:03.082Z,0.00
2022-11-02T10:33:31.814Z,0.00
2022-11-02T10:36:19.151Z,0.00
2022-11-02T10:38:43.863Z,0.00
2022-11-02T10:41:16.378Z,0.00
2022-11-02T10:43:51.006Z,0.00
2022-11-02T10:46:13.810Z,0.00
2022-11-02T10:51:08.996Z,0.00
2022-11-02T10:58:32.940Z,0.00
2022-11-02T11:01:05.924Z,0.00
2022-11-02T11:03:32.048Z,0.00
2022-11-02T11:06:03.882Z,0.00
2022-11-02T11:08:38.130Z,0.00
2022-11-02T11:11:12.533Z,0.00
2022-11-02T11:16:02.661Z,0.20
2022-11-02T11:21:02.928Z,0.20
2022-11-02T11:23:31.907Z,0.20
2022-11-02T11:26:04.090Z,0.20
2022-11-02T11:28:39.242Z,0.20
2022-11-02T11:31:06.774Z,0.20
2022-11-02T11:33:40.191Z,0.00
2022-11-02T11:36:01.983Z,0.00
2022-11-02T11:38:33.037Z,0.00
2022-11-02T11:41:03.523Z,0.00
2022-11-02T11:43:37.541Z,0.10
2022-11-02T11:46:06.757Z,0.10
2022-11-02T11:48:37.411Z,0.10
2022-11-02T11:51:03.806Z,0.10
2022-11-02T11:53:31.994Z,0.00
2022-11-02T11:56:01.892Z,0.00
2022-11-02T11:58:33.340Z,0.00
2022-11-02T12:01:10.744Z,0.00
2022-11-02T12:03:32.536Z,0.00
2022-11-02T12:06:14.792Z,0.00
2022-11-02T12:08:43.094Z,0.00
2022-11-02T12:11:18.749Z,0.00
2022-11-02T12:13:47.421Z,0.00
2022-11-02T12:16:14.219Z,0.00
2022-11-02T12:18:47.661Z,0.00
2022-11-02T12:21:15.276Z,0.00
2022-11-02T12:23:51.731Z,0.00
2022-11-02T12:26:13.739Z,0.00
2022-11-02T12:28:41.585Z,0.00
2022-11-02T12:31:16.383Z,0.00
2022-11-02T12:33:46.055Z,0.00
2022-11-02T12:36:11.574Z,0.00
2022-11-02T12:38:47.911Z,0.00
2022-11-02T12:41:06.793Z,0.00
2022-11-02T12:43:39.163Z,0.00
2022-11-02T12:46:07.089Z,0.00
2022-11-02T12:51:08.378Z,0.00
2022-11-02T12:53:41.873Z,0.00
2022-11-02T12:56:06.010Z,0.00
2022-11-02T12:58:36.307Z,0.00
2022-11-02T13:01:13.450Z,0.00
2022-11-02T13:03:42.860Z,0.00
2022-11-02T13:06:07.912Z,0.00
2022-11-02T13:08:38.202Z,0.00
2022-11-02T13:11:09.434Z,0.00
2022-11-02T13:13:36.961Z,0.00
2022-11-02T13:16:03.717Z,0.00
2022-11-02T13:18:38.482Z,0.00
2022-11-02T13:21:03.987Z,0.00
2022-11-02T13:23:36.748Z,0.40
2022-11-02T13:26:06.060Z,0.40
2022-11-02T13:28:39.865Z,0.40
2022-11-02T13:31:11.739Z,0.40
2022-11-02T13:33:40.173Z,0.00
2022-11-02T13:36:01.939Z,0.00
2022-11-02T13:38:36.304Z,0.00
2022-11-02T13:41:17.731Z,0.00
2022-11-02T13:43:49.589Z,0.00
2022-11-02T13:46:14.607Z,0.00
2022-11-02T13:48:39.420Z,0.00
2022-11-02T13:51:07.609Z,0.00
2022-11-02T13:56:07.617Z,0.00
2022-11-02T13:58:34.866Z,0.00
2022-11-02T14:03:46.002Z,0.00
2022-11-02T14:06:10.125Z,0.00
2022-11-02T14:08:35.352Z,0.00
2022-11-02T14:11:15.361Z,0.00
2022-11-02T14:13:53.336Z,0.00
2022-11-02T14:16:03.590Z,0.00
2022-11-02T14:18:32.439Z,0.00
2022-11-02T14:21:22.401Z,0.00
2022-11-02T14:23:35.245Z,0.00
2022-11-02T14:26:02.455Z,0.00
2022-11-02T14:28:41.132Z,0.00
2022-11-02T14:31:21.690Z,0.00
2022-11-02T14:33:52.133Z,0.00
2022-11-02T14:36:08.456Z,0.00
2022-11-02T14:38:44.946Z,0.00
2022-11-02T14:41:15.491Z,0.00
2022-11-02T14:43:48.719Z,0.00
2022-11-02T14:46:11.835Z,0.00
2022-11-02T14:48:43.503Z,0.00
2022-11-02T14:51:05.562Z,0.00
2022-11-02T14:53:35.248Z,0.00
2022-11-02T14:56:02.851Z,0.00
2022-11-02T14:58:37.136Z,0.00
2022-11-02T15:01:05.048Z,0.00
2022-11-02T15:03:35.100Z,0.00
2022-11-02T15:06:04.875Z,0.00
2022-11-02T15:08:34.266Z,0.00
2022-11-02T15:11:21.844Z,0.00
2022-11-02T15:13:35.447Z,0.00
2022-11-02T15:16:20.278Z,0.00
2022-11-02T15:18:34.727Z,0.00
2022-11-02T15:21:21.798Z,0.00
2022-11-02T15:23:41.079Z,0.00
2022-11-02T15:26:05.131Z,0.00
2022-11-02T15:28:33.459Z,0.00
2022-11-02T15:31:06.045Z,0.00
2022-11-02T15:33:36.011Z,0.20
2022-11-02T15:36:04.554Z,0.20
2022-11-02T15:38:38.391Z,0.20
2022-11-02T15:41:12.485Z,0.20
2022-11-02T15:43:45.839Z,0.20
2022-11-02T15:46:11.127Z,0.20
2022-11-02T15:48:42.761Z,0.20
2022-11-02T15:51:10.038Z,0.20
2022-11-02T15:53:45.481Z,0.00
2022-11-02T15:56:16.184Z,0.00
2022-11-02T15:58:46.238Z,0.00
2022-11-02T16:01:15.905Z,0.00
2022-11-02T16:03:33.419Z,0.10
2022-11-02T16:06:05.853Z,0.10
2022-11-02T16:08:34.000Z,0.10
2022-11-02T16:11:04.070Z,0.10
2022-11-02T16:13:48.820Z,0.40
2022-11-02T16:16:05.799Z,0.40
2022-11-02T16:18:36.256Z,0.40
2022-11-02T16:21:05.296Z,0.40
2022-11-02T16:23:35.130Z,0.00
2022-11-02T16:26:04.153Z,0.00
2022-11-02T16:28:33.800Z,0.00
2022-11-02T16:31:12.491Z,0.00
2022-11-02T16:33:36.421Z,0.00
2022-11-02T16:36:02.641Z,0.00
2022-11-02T16:38:32.647Z,0.00
2022-11-02T16:41:02.767Z,0.00
2022-11-02T16:43:32.468Z,0.20
2022-11-02T16:46:03.516Z,0.20
2022-11-02T16:48:34.543Z,0.20
2022-11-02T16:51:04.317Z,0.20
2022-11-02T16:53:33.603Z,0.00
2022-11-02T16:56:14.101Z,0.00
2022-11-02T16:58:31.993Z,0.00
2022-11-02T17:01:04.281Z,0.00
2022-11-02T17:03:33.538Z,0.00
2022-11-02T17:06:05.845Z,0.00
2022-11-02T17:08:34.334Z,0.00
2022-11-02T17:11:04.620Z,0.00
2022-11-02T17:13:37.074Z,0.00
2022-11-02T17:16:04.878Z,0.00
2022-11-02T17:21:20.609Z,0.00
2022-11-02T17:23:34.516Z,0.40
2022-11-02T17:26:21.779Z,0.40
2022-11-02T17:28:43.175Z,0.40
2022-11-02T17:31:01.990Z,0.40
2022-11-02T17:33:32.647Z,0.00
2022-11-02T17:36:05.724Z,0.00
2022-11-02T17:38:33.125Z,0.00
2022-11-02T17:41:12.299Z,0.00
2022-11-02T17:43:32.350Z,0.00
2022-11-02T17:46:03.697Z,0.00
2022-11-02T17:48:31.982Z,0.00
2022-11-02T17:51:02.450Z,0.00
2022-11-02T17:53:32.168Z,0.20
2022-11-02T17:56:02.216Z,0.20
2022-11-02T17:58:32.103Z,0.20
2022-11-02T18:01:03.246Z,0.20
2022-11-02T18:03:32.141Z,0.10
2022-11-02T18:06:02.625Z,0.10
2022-11-02T18:11:02.010Z,0.10
2022-11-02T18:13:32.055Z,0.00
2022-11-02T18:16:02.197Z,0.00
2022-11-02T18:18:32.016Z,0.00
2022-11-02T18:21:02.252Z,0.00
2022-11-02T18:23:34.208Z,0.00
2022-11-02T18:26:02.351Z,0.00
2022-11-02T18:28:32.217Z,0.00
2022-11-02T18:33:32.257Z,0.10
2022-11-02T18:36:02.761Z,0.10
2022-11-02T18:38:32.459Z,0.10
2022-11-02T18:41:03.195Z,0.10
2022-11-02T18:43:32.001Z,0.00
2022-11-02T18:46:02.096Z,0.00
2022-11-02T18:48:31.994Z,0.00
2022-11-02T18:51:03.610Z,0.00
2022-11-02T18:53:32.194Z,0.30
2022-11-02T18:56:02.208Z,0.30
2022-11-02T18:58:32.028Z,0.30
2022-11-02T19:01:07.186Z,0.30
2022-11-02T19:03:32.195Z,0.40
2022-11-02T19:06:12.509Z,0.40
2022-11-02T19:08:42.533Z,0.40
2022-11-02T19:11:02.017Z,0.40
2022-11-02T19:16:02.074Z,0.00
2022-11-02T19:18:33.409Z,0.00
2022-11-02T19:21:02.008Z,0.00
2022-11-02T19:23:32.028Z,0.00
2022-11-02T19:26:02.054Z,0.00
2022-11-02T19:28:32.203Z,0.00
2022-11-02T19:31:03.644Z,0.00
2022-11-02T19:36:02.250Z,0.30
2022-11-02T19:38:35.376Z,0.30
2022-11-02T19:43:32.398Z,0.10
2022-11-02T19:46:02.607Z,0.10
2022-11-02T19:48:34.571Z,0.10
2022-11-02T19:51:07.098Z,0.10
2022-11-02T19:53:34.165Z,0.00
2022-11-02T19:56:02.675Z,0.00
2022-11-02T19:58:32.236Z,0.00
2022-11-02T20:01:06.010Z,0.00
2022-11-02T20:03:32.054Z,0.00
2022-11-02T20:06:04.896Z,0.00
2022-11-02T20:08:32.731Z,0.00
2022-11-02T20:11:03.617Z,0.00
2022-11-02T20:13:33.208Z,0.80
2022-11-02T20:16:03.597Z,0.80
2022-11-02T20:18:33.508Z,0.80
2022-11-02T20:21:03.276Z,0.80
2022-11-02T20:23:32.992Z,0.00
2022-11-02T20:26:08.963Z,0.00
2022-11-02T20:28:37.218Z,0.00
2022-11-02T20:31:07.011Z,0.00
2022-11-02T20:33:33.394Z,0.20
2022-11-02T20:36:03.303Z,0.20
2022-11-02T20:38:32.718Z,0.20
2022-11-02T20:41:04.408Z,0.20
2022-11-02T20:43:32.067Z,0.20
2022-11-02T20:46:31.455Z,0.20
2022-11-02T20:48:32.742Z,0.20
2022-11-02T20:51:03.392Z,0.20
2022-11-02T20:53:32.269Z,0.00
2022-11-02T20:56:03.042Z,0.00
2022-11-02T21:01:02.629Z,0.00
2022-11-02T21:03:33.181Z,0.00
2022-11-02T21:06:02.330Z,0.00
2022-11-02T21:08:33.283Z,0.00
2022-11-02T21:11:13.558Z,0.00
2022-11-02T21:13:41.905Z,0.10
2022-11-02T21:16:02.621Z,0.10
2022-11-02T21:18:32.658Z,0.10
2022-11-02T21:21:03.938Z,0.10
2022-11-02T21:23:33.062Z,0.10
2022-11-02T21:26:05.088Z,0.10
2022-11-02T21:31:03.876Z,0.10
2022-11-02T21:36:04.256Z,0.00
2022-11-02T21:38:32.311Z,0.00
2022-11-02T21:41:04.606Z,0.00
2022-11-02T21:43:35.077Z,0.00
2022-11-02T21:46:05.026Z,0.00
2022-11-02T21:48:33.785Z,0.00
2022-11-02T21:51:04.991Z,0.00
2022-11-02T21:56:04.877Z,0.00
2022-11-02T21:58:32.705Z,0.00
2022-11-02T22:01:14.854Z,0.00
2022-11-02T22:03:32.285Z,0.00
2022-11-02T22:06:02.061Z,0.00
2022-11-02T22:08:39.689Z,0.00
2022-11-02T22:11:02.041Z,0.00
2022-11-02T22:13:32.491Z,0.00
2022-11-02T22:16:13.955Z,0.00
2022-11-02T22:18:32.077Z,0.00
2022-11-02T22:21:02.380Z,0.00
2022-11-02T22:26:06.562Z,0.00
2022-11-02T22:28:33.901Z,0.00
2022-11-02T22:31:03.962Z,0.00
2022-11-02T22:33:32.616Z,0.00
2022-11-02T22:36:04.148Z,0.00
2022-11-02T22:38:42.519Z,0.00
2022-11-02T22:41:02.689Z,0.00
2022-11-02T22:43:32.063Z,0.00
2022-11-02T22:46:03.634Z,0.00
2022-11-02T22:48:33.253Z,0.00
2022-11-02T22:51:05.070Z,0.00
2022-11-02T22:53:32.645Z,0.00
2022-11-02T22:56:06.685Z,0.00
2022-11-02T22:58:35.447Z,0.00
2022-11-02T23:01:03.237Z,0.00
2022-11-02T23:03:33.586Z,0.00
2022-11-02T23:06:05.385Z,0.00
2022-11-02T23:08:34.273Z,0.00
2022-11-02T23:11:13.521Z,0.00
2022-11-02T23:13:33.442Z,0.00
2022-11-02T23:16:13.325Z,0.00
2022-11-02T23:18:41.895Z,0.00
2022-11-02T23:23:42.052Z,0.00
2022-11-02T23:26:02.121Z,0.00
2022-11-02T23:28:42.074Z,0.00
2022-11-02T23:31:12.094Z,0.00
2022-11-02T23:33:35.166Z,0.00
2022-11-02T23:36:10.516Z,0.00
2022-11-02T23:38:42.290Z,0.00
2022-11-02T23:41:02.228Z,0.00
2022-11-02T23:43:32.145Z,1.70
2022-11-02T23:46:02.322Z,1.70
2022-11-02T23:48:32.349Z,1.70
2022-11-02T23:51:12.462Z,1.70
2022-11-02T23:53:41.937Z,1.00
2022-11-02T23:56:13.505Z,1.00
2022-11-02T23:58:32.273Z,1.00
